Wexford, Ireland
Current Conditions -  °F | °C
As of 5:00 PM on Sunday 25 Jan 2015 (Local Time) from EIWF Reporting Station
Broken Clouds Broken Clouds  
Wind Chill: 50°   Ceiling: 800
Heat Index: 50°   Visibility: 5mi
Dew Point: 48°   Wind: 16mph
Humidity: 94%   Direction: 240°WSW
Pressure: 30.27"   Gusts: NA
Location:  52.34°N, 6.48°W
Report Text: EIWF 251600Z 24014KT 190V290 8000 FEW003 BKN008 10/09 Q1025 R21/1/////
Loading
Personal Weather Stations






























Interactive Weather Map New forecast layout! Learn more

10-Day Weather Forecast

Advertisements
Track Severe Weather on mobile